Time;durP1;ratioP1;P1;durP2;ratioP2;P2;SDS_P1;SDS_P2;PMS_P1;PMS_P2;Temp;Humidity;BMP_temperature;BMP_pressure;BME280_temperature;BME280_humidity;BME280_pressure;Samples;Min_cycle;Max_cycle;Signal;HPM_P1;HPM_P2
2023/10/15 00:01:52;;;;;;;4.20;1.00;;;8.90;99.90;;;;;;5021513;28;20057;-80
2023/10/15 00:04:18;;;;;;;2.80;0.65;;;8.80;99.90;;;;;;5025280;28;20132;-80
2023/10/15 00:06:43;;;;;;;3.25;0.70;;;8.80;99.90;;;;;;5018348;28;20144;-80
2023/10/15 00:09:09;;;;;;;3.00;0.60;;;8.80;99.90;;;;;;5021452;28;20076;-80
2023/10/15 00:11:35;;;;;;;5.07;0.70;;;8.80;99.90;;;;;;5023045;28;20516;-79
2023/10/15 00:14:03;;;;;;;4.22;1.30;;;8.80;99.90;;;;;;5020600;28;20103;-80
2023/10/15 00:16:29;;;;;;;3.42;0.60;;;8.80;99.90;;;;;;5024513;28;20099;-80
2023/10/15 00:18:55;;;;;;;5.32;1.20;;;8.70;99.90;;;;;;5025503;28;20129;-80
2023/10/15 00:21:21;;;;;;;5.47;1.35;;;8.70;99.90;;;;;;5027062;28;20144;-81
2023/10/15 00:23:47;;;;;;;3.92;0.68;;;8.70;99.90;;;;;;5017288;28;20038;-81
2023/10/15 00:26:14;;;;;;;4.40;1.52;;;8.70;99.90;;;;;;5024752;28;20081;-81
2023/10/15 00:28:40;;;;;;;4.90;0.70;;;8.60;99.90;;;;;;5020236;28;20049;-81
2023/10/15 00:31:10;;;;;;;3.92;0.85;;;8.60;99.90;;;;;;5023777;28;20400;-81
2023/10/15 00:33:39;;;;;;;1.55;0.70;;;8.60;99.90;;;;;;5020807;28;20485;-81
2023/10/15 00:36:05;;;;;;;4.60;1.08;;;8.50;99.90;;;;;;5024161;28;20551;-81
2023/10/15 00:38:31;;;;;;;2.80;0.95;;;8.50;99.90;;;;;;5016424;28;20054;-81
2023/10/15 00:41:09;;;;;;;4.25;1.05;;;8.50;99.90;;;;;;5014528;28;20046;-80
2023/10/15 00:43:35;;;;;;;5.70;1.30;;;8.50;99.90;;;;;;5022569;28;20041;-80
2023/10/15 00:46:09;;;;;;;5.35;0.90;;;8.50;99.90;;;;;;5024352;28;20044;-80
2023/10/15 00:48:36;;;;;;;4.35;1.20;;;8.50;99.90;;;;;;5022909;28;20041;-80
2023/10/15 00:51:13;;;;;;;4.45;0.93;;;8.50;99.90;;;;;;5026776;28;20083;-80
2023/10/15 00:53:53;;;;;;;3.95;1.17;;;8.40;99.90;;;;;;5023833;28;20038;-80
2023/10/15 00:56:25;;;;;;;4.53;1.10;;;8.40;99.90;;;;;;5017383;28;20130;-80
2023/10/15 01:03:58;;;;;;;3.78;1.10;;;8.30;99.90;;;;;;5024687;28;20054;-80
2023/10/15 01:08:52;;;;;;;4.55;1.00;;;8.30;99.90;;;;;;5014122;28;20057;-81
2023/10/15 01:11:18;;;;;;;2.55;0.57;;;8.40;99.90;;;;;;5019920;28;20506;-81
2023/10/15 01:13:44;;;;;;;2.75;0.73;;;8.30;99.90;;;;;;5022498;28;20158;-81
2023/10/15 01:16:17;;;;;;;2.17;0.73;;;8.30;99.90;;;;;;5015060;28;20051;-80
2023/10/15 01:18:45;;;;;;;4.60;0.77;;;8.30;99.90;;;;;;5023147;28;20088;-80
2023/10/15 01:21:16;;;;;;;2.50;0.82;;;8.30;99.90;;;;;;5023261;28;20389;-81
2023/10/15 01:26:14;;;;;;;4.07;1.10;;;8.30;99.90;;;;;;5027810;28;20378;-81
2023/10/15 01:28:41;;;;;;;3.90;0.77;;;8.30;99.90;;;;;;5022314;28;20046;-81
2023/10/15 01:31:06;;;;;;;4.03;1.13;;;8.20;99.90;;;;;;5016283;28;20041;-81
2023/10/15 01:33:46;;;;;;;2.40;0.70;;;8.30;99.90;;;;;;5016266;28;20129;-80
2023/10/15 01:36:27;;;;;;;2.08;0.90;;;8.30;99.90;;;;;;5025126;28;20511;-81
2023/10/15 01:38:57;;;;;;;2.85;0.70;;;8.50;99.90;;;;;;5014339;28;20058;-81
2023/10/15 01:41:25;;;;;;;2.35;0.90;;;8.40;99.90;;;;;;5025855;28;20060;-81
2023/10/15 01:43:53;;;;;;;3.00;0.60;;;8.50;99.90;;;;;;5024421;28;20073;-81
2023/10/15 01:49:18;;;;;;;5.13;1.42;;;8.40;99.90;;;;;;5010536;28;20077;-81
2023/10/15 01:51:45;;;;;;;4.15;0.90;;;8.40;99.90;;;;;;5024499;28;20060;-80
2023/10/15 01:54:12;;;;;;;3.83;1.23;;;8.40;99.90;;;;;;5022476;28;20080;-81
2023/10/15 01:56:38;;;;;;;3.47;1.20;;;8.40;99.90;;;;;;5024083;28;20124;-80
2023/10/15 01:59:08;;;;;;;2.65;0.77;;;8.40;99.90;;;;;;5015080;28;20077;-80
2023/10/15 02:01:40;;;;;;;3.20;0.68;;;8.40;99.90;;;;;;5022900;28;20061;-80
2023/10/15 02:04:12;;;;;;;2.95;0.77;;;8.40;99.90;;;;;;5024673;28;20067;-80
2023/10/15 02:06:43;;;;;;;4.18;1.00;;;8.30;99.90;;;;;;5018740;28;20547;-80
2023/10/15 02:09:13;;;;;;;5.20;1.02;;;8.30;99.90;;;;;;5022705;28;20598;-80
2023/10/15 02:11:47;;;;;;;4.53;1.40;;;8.30;99.90;;;;;;5022879;28;20049;-80
2023/10/15 02:14:27;;;;;;;3.70;1.20;;;8.30;99.90;;;;;;5024219;28;21817;-80
2023/10/15 02:16:53;;;;;;;4.20;0.95;;;8.30;99.90;;;;;;5022022;28;20053;-80
2023/10/15 02:19:34;;;;;;;7.33;2.03;;;8.30;99.90;;;;;;5023135;28;20493;-80
2023/10/15 02:22:05;;;;;;;1.95;0.75;;;8.20;99.90;;;;;;5022470;28;20508;-80
2023/10/15 02:24:33;;;;;;;4.68;1.40;;;8.20;99.90;;;;;;5017401;28;20037;-80
2023/10/15 02:26:59;;;;;;;1.48;0.68;;;8.20;99.90;;;;;;5018069;28;20099;-80
2023/10/15 02:32:08;;;;;;;3.15;0.68;;;8.20;99.90;;;;;;5016755;28;20517;-80
2023/10/15 02:34:42;;;;;;;6.38;1.40;;;8.10;99.90;;;;;;5019142;28;20511;-76
2023/10/15 02:37:16;;;;;;;6.90;1.25;;;8.10;99.90;;;;;;5023442;28;20037;-75
2023/10/15 02:39:49;;;;;;;6.28;1.30;;;8.10;99.90;;;;;;5024431;28;20093;-75
2023/10/15 02:42:16;;;;;;;6.03;1.20;;;8.10;99.90;;;;;;5018332;28;20132;-75
2023/10/15 02:44:44;;;;;;;3.33;0.80;;;8.10;99.90;;;;;;5021138;28;20080;-75
2023/10/15 02:49:54;;;;;;;6.60;0.70;;;8.00;99.90;;;;;;5023990;28;20053;-75
2023/10/15 02:52:23;;;;;;;2.40;0.65;;;8.00;99.90;;;;;;5018727;28;20042;-75
2023/10/15 02:54:49;;;;;;;1.67;0.60;;;8.00;99.90;;;;;;5014925;28;20049;-75
2023/10/15 02:57:16;;;;;;;6.83;1.30;;;8.00;99.90;;;;;;5023371;28;20096;-75
2023/10/15 02:59:51;;;;;;;2.70;0.60;;;8.10;99.90;;;;;;5022267;28;20296;-75
2023/10/15 03:02:21;;;;;;;3.03;0.75;;;8.00;99.90;;;;;;5022685;28;20065;-75
2023/10/15 03:04:55;;;;;;;2.78;0.60;;;8.00;99.90;;;;;;5022984;28;20049;-75
2023/10/15 03:07:30;;;;;;;3.45;0.85;;;8.00;99.90;;;;;;5024488;28;21990;-75
2023/10/15 03:09:56;;;;;;;2.80;0.70;;;8.00;99.90;;;;;;5028425;28;20048;-75
2023/10/15 03:12:23;;;;;;;5.23;1.17;;;8.00;99.90;;;;;;5024494;28;20512;-75
2023/10/15 03:14:49;;;;;;;2.75;1.10;;;8.00;99.90;;;;;;5026665;28;20052;-75
2023/10/15 03:17:24;;;;;;;2.20;0.80;;;8.10;99.90;;;;;;5022439;28;20048;-74
2023/10/15 03:19:54;;;;;;;4.05;1.00;;;8.10;99.90;;;;;;5027886;28;20124;-75
2023/10/15 03:22:23;;;;;;;2.50;0.70;;;8.10;99.90;;;;;;5026221;28;20054;-75
2023/10/15 03:24:56;;;;;;;4.35;1.13;;;8.10;99.90;;;;;;5024862;28;20045;-75
2023/10/15 03:27:27;;;;;;;1.88;0.60;;;8.10;99.90;;;;;;5024519;28;20046;-75
2023/10/15 03:29:58;;;;;;;2.97;0.73;;;8.10;99.90;;;;;;5023012;28;20117;-75
2023/10/15 03:32:31;;;;;;;2.33;0.70;;;8.10;99.90;;;;;;5018262;28;20041;-74
2023/10/15 03:38:05;;;;;;;5.28;0.73;;;8.00;99.90;;;;;;4992651;28;20056;-75
2023/10/15 03:40:32;;;;;;;1.23;0.60;;;8.00;99.90;;;;;;5020991;28;20064;-75
2023/10/15 03:43:15;;;;;;;3.42;1.00;;;8.00;99.90;;;;;;5023304;28;20141;-75
2023/10/15 03:45:53;;;;;;;2.88;0.70;;;7.90;99.90;;;;;;5023719;28;20103;-75
2023/10/15 03:48:32;;;;;;;3.72;1.40;;;7.90;99.90;;;;;;5020121;28;20497;-75
2023/10/15 03:50:58;;;;;;;3.22;0.80;;;7.90;99.90;;;;;;5024718;28;20969;-75
2023/10/15 03:53:27;;;;;;;3.30;0.90;;;7.90;99.90;;;;;;5022694;28;20054;-75
2023/10/15 03:56:04;;;;;;;1.98;1.08;;;7.90;99.90;;;;;;5024474;28;20195;-75
2023/10/15 03:58:33;;;;;;;2.22;1.25;;;7.80;99.90;;;;;;5022477;28;20057;-75
2023/10/15 04:01:16;;;;;;;2.53;0.70;;;7.80;99.90;;;;;;5019676;28;20120;-75
2023/10/15 04:03:51;;;;;;;2.08;0.60;;;7.80;99.90;;;;;;5014474;28;20049;-75
2023/10/15 04:06:18;;;;;;;5.30;0.90;;;7.70;99.90;;;;;;5018309;28;20041;-75
2023/10/15 04:09:09;;;;;;;4.63;1.00;;;7.70;99.90;;;;;;5016483;28;20129;-75
2023/10/15 04:11:42;;;;;;;5.13;1.20;;;7.70;99.90;;;;;;5022966;28;20121;-75
2023/10/15 04:14:13;;;;;;;4.88;1.20;;;7.70;99.90;;;;;;5014644;28;20081;-75
2023/10/15 04:16:42;;;;;;;2.15;0.70;;;7.70;99.90;;;;;;5021612;28;20077;-75
2023/10/15 04:19:08;;;;;;;2.50;0.70;;;7.70;99.90;;;;;;5025083;28;20045;-75
2023/10/15 04:21:40;;;;;;;3.65;1.15;;;7.70;99.90;;;;;;5022889;28;20099;-75
2023/10/15 04:24:07;;;;;;;3.75;1.20;;;7.70;99.90;;;;;;5016719;28;20041;-75
2023/10/15 04:26:35;;;;;;;1.98;0.63;;;7.60;99.90;;;;;;5024744;28;20485;-76
2023/10/15 04:29:16;;;;;;;4.55;1.02;;;7.60;99.90;;;;;;5020489;28;20104;-75
2023/10/15 04:32:00;;;;;;;3.92;1.30;;;7.50;99.90;;;;;;5012009;28;20057;-75
2023/10/15 04:34:28;;;;;;;4.68;1.17;;;7.60;99.90;;;;;;5016678;28;20099;-75
2023/10/15 04:36:57;;;;;;;2.67;0.90;;;7.60;99.90;;;;;;5024100;28;20080;-75
2023/10/15 04:39:23;;;;;;;1.52;0.82;;;7.60;99.90;;;;;;5021173;28;20081;-75
2023/10/15 04:41:51;;;;;;;4.90;0.88;;;7.50;99.90;;;;;;5016293;28;20464;-75
2023/10/15 04:44:31;;;;;;;4.57;1.20;;;7.50;99.90;;;;;;5021767;28;20038;-75
2023/10/15 04:47:04;;;;;;;3.10;1.15;;;7.50;99.90;;;;;;5021021;28;20119;-75
2023/10/15 04:49:32;;;;;;;3.15;1.00;;;7.50;99.90;;;;;;5012575;28;20489;-75
2023/10/15 04:51:58;;;;;;;2.30;0.73;;;7.50;99.90;;;;;;5023697;28;20048;-75
2023/10/15 04:54:25;;;;;;;3.90;1.00;;;7.50;99.90;;;;;;5018054;28;20084;-75
2023/10/15 04:56:52;;;;;;;3.92;1.20;;;7.50;99.90;;;;;;5024228;28;20096;-75
2023/10/15 04:59:18;;;;;;;6.00;1.20;;;7.50;99.90;;;;;;5020801;28;20044;-75
2023/10/15 05:01:45;;;;;;;5.40;1.35;;;7.50;99.90;;;;;;5022584;28;20041;-75
2023/10/15 05:04:13;;;;;;;4.35;1.13;;;7.50;99.90;;;;;;5025636;28;20055;-75
2023/10/15 05:06:38;;;;;;;1.95;1.17;;;7.60;99.90;;;;;;5020745;28;20076;-75
2023/10/15 05:09:08;;;;;;;4.60;1.05;;;7.50;99.90;;;;;;5017857;28;20049;-75
2023/10/15 05:11:34;;;;;;;4.35;1.23;;;7.60;99.90;;;;;;5022897;28;20655;-75
2023/10/15 05:14:00;;;;;;;2.35;0.63;;;7.60;99.90;;;;;;5019711;28;20064;-75
2023/10/15 05:16:26;;;;;;;4.13;0.85;;;7.60;99.90;;;;;;5022080;28;20497;-76
2023/10/15 05:18:52;;;;;;;1.35;0.60;;;7.60;99.90;;;;;;5026448;28;20045;-75
2023/10/15 05:21:17;;;;;;;3.58;0.77;;;7.60;99.90;;;;;;5018595;28;20080;-75
2023/10/15 05:23:45;;;;;;;4.35;1.17;;;7.60;99.90;;;;;;5020030;28;20115;-75
2023/10/15 05:26:11;;;;;;;3.80;1.35;;;7.50;99.90;;;;;;5026648;28;20473;-76
2023/10/15 05:28:37;;;;;;;4.07;0.80;;;7.50;99.90;;;;;;5020983;28;20130;-76
2023/10/15 05:31:02;;;;;;;5.70;0.98;;;7.50;99.90;;;;;;5021207;28;20060;-75
2023/10/15 05:33:28;;;;;;;4.53;1.00;;;7.50;99.90;;;;;;5020931;28;20053;-76
2023/10/15 05:35:56;;;;;;;4.30;1.33;;;7.50;99.90;;;;;;5023335;28;20075;-76
2023/10/15 05:38:22;;;;;;;3.03;0.77;;;7.50;99.90;;;;;;5020057;28;20121;-75
2023/10/15 05:40:49;;;;;;;2.13;0.80;;;7.60;99.90;;;;;;5020558;28;20136;-76
2023/10/15 05:43:17;;;;;;;4.00;1.27;;;7.50;99.90;;;;;;5022506;28;20076;-76
2023/10/15 05:45:46;;;;;;;4.93;1.10;;;7.50;99.90;;;;;;5023543;28;20037;-76
2023/10/15 05:48:12;;;;;;;3.63;0.70;;;7.50;99.90;;;;;;5018830;28;20120;-77
2023/10/15 05:50:39;;;;;;;3.38;0.95;;;7.50;99.90;;;;;;5022145;28;20128;-76
2023/10/15 05:53:06;;;;;;;2.85;0.80;;;7.50;99.90;;;;;;5018322;28;20396;-76
2023/10/15 05:55:32;;;;;;;5.57;1.10;;;7.50;99.90;;;;;;5012185;28;20060;-76
2023/10/15 05:57:58;;;;;;;4.30;0.65;;;7.50;99.90;;;;;;5018141;28;20639;-76
2023/10/15 06:00:26;;;;;;;4.13;1.25;;;7.50;99.90;;;;;;5012685;28;20470;-75
2023/10/15 06:02:53;;;;;;;2.80;0.50;;;7.50;99.90;;;;;;5022283;28;20042;-82
2023/10/15 06:05:19;;;;;;;3.22;0.73;;;7.50;99.90;;;;;;5017303;28;20125;-82
2023/10/15 06:07:46;;;;;;;5.43;1.10;;;7.50;99.90;;;;;;5021527;28;20124;-77
2023/10/15 06:10:12;;;;;;;2.70;0.60;;;7.50;99.90;;;;;;5019395;28;20540;-90
2023/10/15 06:12:38;;;;;;;4.10;0.70;;;7.60;99.90;;;;;;5019223;28;20038;-82
2023/10/15 06:15:06;;;;;;;5.47;0.98;;;7.60;99.90;;;;;;5019814;28;20056;-78
2023/10/15 06:17:32;;;;;;;3.88;0.93;;;7.60;99.90;;;;;;5022335;28;20049;-78
2023/10/15 06:19:59;;;;;;;2.83;0.88;;;7.50;99.90;;;;;;5020956;28;20049;-85
2023/10/15 06:22:25;;;;;;;4.85;0.98;;;7.60;99.90;;;;;;5021391;28;20065;-82
2023/10/15 06:24:52;;;;;;;2.75;0.73;;;7.60;99.90;;;;;;5017147;28;20042;-80
2023/10/15 06:27:18;;;;;;;2.60;0.60;;;7.60;99.90;;;;;;5010465;28;20100;-84
2023/10/15 06:29:44;;;;;;;2.58;0.50;;;7.60;99.90;;;;;;5020929;28;20177;-79
2023/10/15 06:32:10;;;;;;;3.15;0.70;;;7.60;99.90;;;;;;5014509;28;20505;-82
2023/10/15 06:34:39;;;;;;;3.08;0.70;;;7.60;99.90;;;;;;5020399;28;20052;-79
2023/10/15 06:37:08;;;;;;;3.15;0.60;;;7.60;99.90;;;;;;5021343;28;20400;-78
2023/10/15 06:39:34;;;;;;;3.78;0.60;;;7.60;99.90;;;;;;5016717;28;20049;-81
2023/10/15 06:42:00;;;;;;;3.05;0.80;;;7.60;99.90;;;;;;5013068;28;20081;-83
2023/10/15 06:44:26;;;;;;;3.63;0.90;;;7.70;99.90;;;;;;5021827;28;20052;-79
2023/10/15 06:46:52;;;;;;;2.67;0.50;;;7.60;99.90;;;;;;5017410;28;20046;-76
2023/10/15 06:49:18;;;;;;;2.63;0.60;;;7.70;99.90;;;;;;5028154;28;20045;-80
2023/10/15 06:51:44;;;;;;;2.20;0.60;;;7.70;99.90;;;;;;5023282;28;20087;-80
2023/10/15 06:54:11;;;;;;;3.58;0.60;;;7.70;99.90;;;;;;5028234;28;20135;-80
2023/10/15 06:56:38;;;;;;;2.13;0.40;;;7.70;99.90;;;;;;5027351;28;20558;-80
2023/10/15 06:59:04;;;;;;;6.00;0.90;;;7.70;99.90;;;;;;5019151;28;20062;-83
2023/10/15 07:01:30;;;;;;;1.70;0.38;;;7.70;99.90;;;;;;5016092;28;20856;-76
2023/10/15 07:03:56;;;;;;;3.80;0.60;;;7.70;99.90;;;;;;5030279;28;20049;-82
2023/10/15 07:06:23;;;;;;;3.55;0.68;;;7.80;99.90;;;;;;5014779;28;20057;-80
2023/10/15 07:08:49;;;;;;;2.42;0.40;;;7.70;99.90;;;;;;5024046;28;20476;-79
2023/10/15 07:11:15;;;;;;;2.38;0.60;;;7.70;99.90;;;;;;5025698;28;20437;-79
2023/10/15 07:13:41;;;;;;;2.05;0.80;;;7.70;99.90;;;;;;5022447;28;20564;-78
2023/10/15 07:16:06;;;;;;;1.23;0.57;;;7.70;99.90;;;;;;5016171;28;20049;-78
2023/10/15 07:18:33;;;;;;;2.00;0.70;;;7.80;99.90;;;;;;5029103;28;20073;-78
2023/10/15 07:20:59;;;;;;;4.05;0.68;;;7.80;99.90;;;;;;5013122;28;20052;-78
2023/10/15 07:23:25;;;;;;;1.95;0.63;;;7.90;99.90;;;;;;5019148;28;20049;-77
2023/10/15 07:25:51;;;;;;;1.48;0.40;;;7.90;99.90;;;;;;5018135;28;20056;-77
2023/10/15 07:28:17;;;;;;;1.88;0.55;;;8.00;99.90;;;;;;5026933;28;20053;-78
2023/10/15 07:30:42;;;;;;;1.90;0.50;;;7.90;99.90;;;;;;5022644;28;20049;-78
2023/10/15 07:33:09;;;;;;;3.10;0.90;;;8.00;99.90;;;;;;5023645;28;20041;-78
2023/10/15 07:35:35;;;;;;;1.55;0.45;;;8.00;99.90;;;;;;5013131;28;20045;-78
2023/10/15 07:38:04;;;;;;;1.73;0.60;;;8.00;99.90;;;;;;5021665;28;20057;-82
2023/10/15 07:40:32;;;;;;;2.00;0.82;;;8.00;99.90;;;;;;5021619;28;20073;-78
2023/10/15 07:42:59;;;;;;;2.40;0.65;;;8.10;99.90;;;;;;5010596;28;20477;-78
2023/10/15 07:45:31;;;;;;;2.60;0.80;;;8.10;99.90;;;;;;5023473;28;20069;-79
2023/10/15 07:48:02;;;;;;;0.93;0.30;;;8.00;99.90;;;;;;5021709;28;20053;-82
2023/10/15 07:50:29;;;;;;;1.83;0.50;;;8.00;99.90;;;;;;5021632;28;20050;-77
2023/10/15 07:52:55;;;;;;;;;;;8.00;99.90;;;;;;5018308;28;20050;-79
2023/10/15 07:55:24;;;;;;;4.05;0.50;;;8.00;99.90;;;;;;5022872;28;19935;-78
2023/10/15 07:57:51;;;;;;;2.28;0.63;;;8.00;99.90;;;;;;5022855;28;20037;-75
2023/10/15 08:00:23;;;;;;;2.00;0.73;;;8.00;99.90;;;;;;5016289;28;20099;-81
2023/10/15 08:02:52;;;;;;;1.17;0.38;;;8.00;99.90;;;;;;5020289;28;20045;-81
2023/10/15 08:05:21;;;;;;;2.65;0.70;;;8.00;99.90;;;;;;5022543;28;20045;-85
2023/10/15 08:07:48;;;;;;;2.72;0.50;;;8.00;99.90;;;;;;5020365;28;20139;-78
2023/10/15 08:10:14;;;;;;;2.90;0.50;;;8.00;99.90;;;;;;5018551;28;20072;-79
2023/10/15 08:12:40;;;;;;;5.95;0.90;;;8.10;99.90;;;;;;5018150;28;20034;-79
2023/10/15 08:15:07;;;;;;;2.80;0.40;;;7.90;99.90;;;;;;5018658;28;20041;-78
2023/10/15 08:17:33;;;;;;;3.83;0.55;;;7.90;99.90;;;;;;5015596;28;20049;-78
2023/10/15 08:19:59;;;;;;;3.05;0.80;;;7.90;99.90;;;;;;5016587;28;20045;-78
2023/10/15 08:22:28;;;;;;;2.92;0.70;;;7.80;99.90;;;;;;5010035;28;20129;-79
2023/10/15 08:24:55;;;;;;;3.05;0.60;;;7.70;99.90;;;;;;5027741;28;20258;-80
2023/10/15 08:27:21;;;;;;;3.92;0.93;;;7.70;99.90;;;;;;5028424;28;20049;-79
2023/10/15 08:29:47;;;;;;;2.97;0.70;;;7.70;99.90;;;;;;5020535;28;20045;-80
2023/10/15 08:32:18;;;;;;;2.22;0.80;;;7.70;99.90;;;;;;5011343;28;20140;-79
2023/10/15 08:34:45;;;;;;;2.17;0.50;;;7.70;99.90;;;;;;5023364;28;20102;-81
2023/10/15 08:37:11;;;;;;;0.80;0.50;;;7.70;99.90;;;;;;5025672;28;20046;-79
2023/10/15 08:39:39;;;;;;;0.95;0.35;;;7.80;99.90;;;;;;5017542;28;20385;-78
2023/10/15 08:42:12;;;;;;;0.68;0.40;;;7.80;99.90;;;;;;5009785;28;20667;-77
2023/10/15 08:44:40;;;;;;;0.93;0.60;;;7.80;99.90;;;;;;5016598;28;20050;-78
2023/10/15 08:47:11;;;;;;;0.30;0.30;;;7.80;99.90;;;;;;5019748;28;20088;-78
2023/10/15 08:49:45;;;;;;;2.95;0.60;;;7.80;99.90;;;;;;5021254;28;20042;-77
2023/10/15 08:52:12;;;;;;;1.63;0.40;;;7.80;99.90;;;;;;5016702;28;20612;-75
2023/10/15 08:54:40;;;;;;;3.33;0.70;;;7.80;99.90;;;;;;5022227;28;20049;-78
2023/10/15 08:57:08;;;;;;;0.77;0.22;;;7.90;99.90;;;;;;5011802;28;20042;-77
2023/10/15 08:59:35;;;;;;;1.65;0.50;;;8.00;99.90;;;;;;5017857;28;20057;-80
2023/10/15 09:02:05;;;;;;;4.18;0.80;;;8.10;99.90;;;;;;5022007;28;20120;-79
2023/10/15 09:04:32;;;;;;;1.65;0.45;;;8.10;99.90;;;;;;5012299;28;20433;-78
2023/10/15 09:07:01;;;;;;;2.75;0.95;;;8.20;99.90;;;;;;5025607;28;20116;-77
2023/10/15 09:09:34;;;;;;;2.40;0.50;;;8.30;99.90;;;;;;5020657;28;20136;-79
2023/10/15 09:12:00;;;;;;;2.45;0.63;;;8.40;99.90;;;;;;5018945;28;20052;-78
2023/10/15 09:14:43;;;;;;;2.25;0.70;;;8.50;99.90;;;;;;5018148;28;20037;-79
2023/10/15 09:17:17;;;;;;;2.88;0.60;;;8.60;99.90;;;;;;5024142;28;20384;-78
2023/10/15 09:19:46;;;;;;;2.05;0.50;;;8.60;99.90;;;;;;5019161;28;20128;-78
2023/10/15 09:22:14;;;;;;;5.10;0.93;;;8.70;99.90;;;;;;5020465;28;20041;-79
2023/10/15 09:24:44;;;;;;;3.03;0.85;;;8.80;99.90;;;;;;5019179;28;20136;-78
2023/10/15 09:27:10;;;;;;;3.03;0.70;;;8.90;99.90;;;;;;5017965;28;20120;-78
2023/10/15 09:29:36;;;;;;;4.63;0.65;;;9.00;99.90;;;;;;5024422;28;20046;-78
2023/10/15 09:32:04;;;;;;;4.00;0.60;;;9.00;99.90;;;;;;5020789;28;20092;-78
2023/10/15 09:34:37;;;;;;;2.35;0.80;;;9.10;99.90;;;;;;5014188;28;20081;-77
2023/10/15 09:37:05;;;;;;;2.80;0.85;;;9.10;99.90;;;;;;5015744;28;20124;-81
2023/10/15 09:39:31;;;;;;;2.28;0.70;;;9.10;99.90;;;;;;5022917;28;20887;-82
2023/10/15 09:42:02;;;;;;;3.33;0.80;;;9.30;99.90;;;;;;5017749;28;20152;-78
2023/10/15 09:44:28;;;;;;;3.03;0.60;;;9.30;99.90;;;;;;5014068;28;20038;-78
2023/10/15 09:46:54;;;;;;;3.10;1.00;;;9.30;99.90;;;;;;5022277;28;20068;-78
2023/10/15 09:49:20;;;;;;;1.23;0.47;;;9.20;99.90;;;;;;5013876;28;20073;-78
2023/10/15 09:51:50;;;;;;;5.22;1.73;;;9.20;99.90;;;;;;5016585;28;20069;-78
2023/10/15 09:54:19;;;;;;;2.95;0.80;;;9.20;99.90;;;;;;5017645;28;20051;-83
2023/10/15 09:56:46;;;;;;;3.33;0.60;;;9.10;99.90;;;;;;5020517;28;20049;-82
2023/10/15 09:59:14;;;;;;;3.72;0.80;;;9.20;99.90;;;;;;5017809;28;20037;-85
2023/10/15 10:01:45;;;;;;;5.50;1.20;;;9.30;99.90;;;;;;5024293;28;20116;-83
2023/10/15 10:04:42;;;;;;;2.03;0.60;;;9.40;99.90;;;;;;5010641;28;20054;-82
2023/10/15 10:07:23;;;;;;;3.67;1.20;;;9.50;99.90;;;;;;5012907;28;20079;-82
2023/10/15 10:10:09;;;;;;;5.32;1.17;;;9.60;99.90;;;;;;5023843;28;20558;-83
2023/10/15 10:13:06;;;;;;;2.75;0.60;;;9.70;99.90;;;;;;5011758;28;20080;-83
2023/10/15 10:15:38;;;;;;;5.43;1.25;;;9.80;99.90;;;;;;5023188;28;20073;-80
2023/10/15 10:18:05;;;;;;;5.03;1.20;;;9.90;99.90;;;;;;5021111;28;20061;-80
2023/10/15 10:20:36;;;;;;;6.22;1.30;;;10.00;99.90;;;;;;5016186;28;20069;-78
2023/10/15 10:23:05;;;;;;;5.70;1.23;;;10.00;99.90;;;;;;5027567;28;20037;-80
2023/10/15 10:25:45;;;;;;;5.70;0.80;;;10.10;99.90;;;;;;5015108;28;20041;-81
2023/10/15 10:28:19;;;;;;;5.35;1.40;;;10.20;99.90;;;;;;5012158;28;20145;-79
2023/10/15 10:30:59;;;;;;;6.15;1.23;;;10.20;99.90;;;;;;5044672;28;20128;-79
2023/10/15 10:33:45;;;;;;;6.53;1.05;;;10.30;99.90;;;;;;5021354;28;20128;-81
2023/10/15 10:36:15;;;;;;;5.05;1.13;;;10.30;99.90;;;;;;5018823;28;20482;-82
2023/10/15 10:38:42;;;;;;;7.53;1.40;;;10.30;99.90;;;;;;5010795;28;20057;-82
2023/10/15 10:41:15;;;;;;;6.32;1.58;;;10.50;99.90;;;;;;5016543;28;20464;-83
2023/10/15 10:43:44;;;;;;;7.15;1.38;;;10.60;99.90;;;;;;5007633;28;20053;-84
2023/10/15 10:46:21;;;;;;;5.13;1.35;;;10.70;99.90;;;;;;5015597;28;20542;-86
2023/10/15 10:49:02;;;;;;;;;;;10.80;99.90;;;;;;5038004;28;20073;-83
2023/10/15 10:51:30;;;;;;;4.38;0.95;;;10.80;99.90;;;;;;5027736;28;19925;-84
2023/10/15 10:53:56;;;;;;;8.32;1.50;;;10.90;99.90;;;;;;5024063;28;20072;-83
2023/10/15 10:56:45;;;;;;;7.20;1.35;;;10.90;99.90;;;;;;5025128;28;20649;-82
2023/10/15 10:59:14;;;;;;;5.93;0.80;;;10.90;99.90;;;;;;5016749;28;20133;-86
2023/10/15 11:01:41;;;;;;;6.25;1.75;;;10.80;99.90;;;;;;5023377;28;20038;-76
2023/10/15 11:04:11;;;;;;;4.63;0.95;;;10.70;99.90;;;;;;5027487;28;20053;-74
2023/10/15 11:06:39;;;;;;;3.25;0.90;;;10.60;99.90;;;;;;5017284;28;20556;-77
2023/10/15 11:09:22;;;;;;;2.00;0.50;;;10.40;99.90;;;;;;5023237;28;20037;-77
2023/10/15 11:11:49;;;;;;;2.58;0.68;;;10.10;99.90;;;;;;5023988;28;20099;-77
2023/10/15 11:14:16;;;;;;;2.30;0.65;;;9.80;99.90;;;;;;5001399;28;20049;-77
2023/10/15 11:16:45;;;;;;;5.05;1.00;;;9.60;99.90;;;;;;5021117;28;20092;-77
2023/10/15 11:19:19;;;;;;;6.18;1.10;;;9.40;99.90;;;;;;5022692;28;20135;-89
2023/10/15 11:21:45;;;;;;;4.97;0.80;;;9.30;99.90;;;;;;5025063;28;20057;-85
2023/10/15 11:24:12;;;;;;;2.42;0.65;;;9.20;99.90;;;;;;5016210;28;20481;-85
2023/10/15 11:26:41;;;;;;;6.70;1.23;;;9.10;99.90;;;;;;5024820;28;20580;-89
2023/10/15 11:29:09;;;;;;;5.35;0.70;;;9.10;99.90;;;;;;5026326;28;20053;-87
2023/10/15 11:31:35;;;;;;;;;;;9.20;99.90;;;;;;5029518;28;20068;-90
2023/10/15 11:34:01;;;;;;;3.72;0.90;;;9.30;99.90;;;;;;5019680;28;19928;-83
2023/10/15 11:36:34;;;;;;;4.00;1.10;;;9.40;99.90;;;;;;5022042;28;20049;-82
2023/10/15 11:39:01;;;;;;;7.45;0.90;;;9.60;99.90;;;;;;5022216;28;20063;-85
2023/10/15 11:41:31;;;;;;;3.92;1.13;;;9.70;99.90;;;;;;5022192;28;20438;-81
2023/10/15 11:44:02;;;;;;;3.75;0.95;;;9.90;99.90;;;;;;5024936;28;20041;-85
2023/10/15 11:46:30;;;;;;;3.55;0.50;;;10.10;99.90;;;;;;5024113;28;20115;-85
2023/10/15 11:49:00;;;;;;;2.40;0.85;;;10.20;99.90;;;;;;5019439;28;20100;-85
2023/10/15 11:51:28;;;;;;;3.40;0.90;;;10.30;99.90;;;;;;5022898;28;20041;-85
2023/10/15 11:53:57;;;;;;;2.67;0.60;;;10.40;99.90;;;;;;5022467;28;20045;-85
2023/10/15 11:56:26;;;;;;;3.10;0.93;;;10.50;99.90;;;;;;5027540;28;20049;-86
2023/10/15 11:58:52;;;;;;;4.35;1.33;;;10.60;99.90;;;;;;4997195;28;20042;-85
2023/10/15 12:01:17;;;;;;;3.95;1.17;;;10.60;99.90;;;;;;5020338;28;20497;-90
2023/10/15 12:03:43;;;;;;;4.30;1.30;;;10.70;99.90;;;;;;5019905;28;20045;-88
2023/10/15 12:06:09;;;;;;;5.40;1.20;;;10.80;99.90;;;;;;5021179;28;20161;-83
2023/10/15 12:08:35;;;;;;;4.38;0.82;;;10.80;99.90;;;;;;5011977;28;20041;-86
2023/10/15 12:11:01;;;;;;;4.68;1.20;;;10.80;99.90;;;;;;5014964;28;20440;-88
2023/10/15 12:13:26;;;;;;;6.25;1.63;;;10.90;99.90;;;;;;5024273;28;20420;-85
2023/10/15 12:15:53;;;;;;;6.55;1.38;;;10.90;99.90;;;;;;5014043;28;20038;-83
2023/10/15 12:18:18;;;;;;;6.25;1.38;;;11.00;99.90;;;;;;5010383;28;20049;-85
2023/10/15 12:20:44;;;;;;;4.00;1.02;;;11.00;99.90;;;;;;5012110;28;20136;-87
2023/10/15 12:23:10;;;;;;;4.00;1.00;;;11.10;99.90;;;;;;5026556;28;20049;-86
2023/10/15 12:25:38;;;;;;;5.72;1.20;;;11.10;99.90;;;;;;5019703;28;20044;-86
2023/10/15 12:28:08;;;;;;;6.72;1.70;;;11.20;99.90;;;;;;5024377;28;20180;-90
2023/10/15 12:30:34;;;;;;;6.03;1.48;;;11.30;99.90;;;;;;5023427;28;20433;-83
2023/10/15 12:33:00;;;;;;;5.30;1.43;;;11.40;99.90;;;;;;5017628;28;20041;-82
2023/10/15 12:35:29;;;;;;;6.13;1.42;;;11.40;99.90;;;;;;5010922;28;20314;-81
2023/10/15 12:38:01;;;;;;;3.50;1.00;;;11.40;99.90;;;;;;5013251;28;20137;-81
2023/10/15 12:40:34;;;;;;;4.63;1.55;;;11.40;99.90;;;;;;5018369;28;20513;-81
2023/10/15 12:43:09;;;;;;;6.97;1.38;;;11.40;99.90;;;;;;5024174;28;20515;-83
2023/10/15 12:45:35;;;;;;;4.72;0.98;;;11.40;99.90;;;;;;5014193;28;20564;-82
2023/10/15 12:48:01;;;;;;;7.65;1.63;;;11.50;99.90;;;;;;5014055;28;20489;-82
2023/10/15 12:50:28;;;;;;;5.90;1.40;;;11.60;99.90;;;;;;5022077;28;20054;-81
2023/10/15 12:52:56;;;;;;;6.05;1.48;;;11.70;99.90;;;;;;5024056;28;20056;-82
2023/10/15 12:55:23;;;;;;;6.63;1.30;;;11.70;99.90;;;;;;5017903;28;20523;-81
2023/10/15 12:57:50;;;;;;;;;;;11.70;99.90;;;;;;5019954;28;20081;-83
2023/10/15 13:00:21;;;;;;;6.75;1.30;;;11.70;99.90;;;;;;5024132;28;19929;-82
2023/10/15 13:02:51;;;;;;;4.53;1.20;;;11.70;99.90;;;;;;5019105;28;20053;-83
2023/10/15 13:05:19;;;;;;;4.93;1.23;;;11.80;99.90;;;;;;5017303;28;20727;-82
2023/10/15 13:07:45;;;;;;;6.65;1.38;;;11.80;99.90;;;;;;5025501;28;20056;-82
2023/10/15 13:10:13;;;;;;;4.00;1.13;;;11.80;99.90;;;;;;5017622;28;20124;-89
2023/10/15 13:12:39;;;;;;;3.92;1.00;;;11.90;99.90;;;;;;5015430;28;20099;-87
2023/10/15 13:15:10;;;;;;;4.10;0.80;;;11.90;99.90;;;;;;5026404;28;20042;-84
2023/10/15 13:17:37;;;;;;;5.72;1.40;;;11.80;99.90;;;;;;5021156;28;20058;-85
2023/10/15 13:20:06;;;;;;;5.35;1.08;;;11.80;99.90;;;;;;5026201;28;20041;-87
2023/10/15 13:22:32;;;;;;;6.95;1.58;;;11.80;99.90;;;;;;5019492;28;20045;-82
2023/10/15 13:24:58;;;;;;;5.15;1.30;;;11.70;99.90;;;;;;5019508;28;20049;-83
2023/10/15 13:27:25;;;;;;;3.90;1.30;;;11.80;99.90;;;;;;5034451;28;20382;-80